Airfield :
LOGIN :

Register | Disclaimer

   EN    FR    IT 

 










Legend :    VFR   Marginal VFR   IFR   Intensive IFR   Very Intensive IFR
Visi :
Ceiling :
>= 8 km
>= 3000ft
5 to 8 km
1000 to 3000 ft
1500m to 5 km
500 to 1000 ft
800 to 1500m
200 to 500 ft
< 800m
< 200 ft
Symbols :   Thunderstorms  Fog  Heavy snow  Heavy precipitations  Wind > 20 kt
SIGMETs :     Misc.  Thunderstorms  Icing  Turbulence  Mountain Waves  Volcanic Ashes







- Airport Elevation : 12 ft
- IATA code : NCE
- Download approach charts


LFMN - Nice

CURRENT METAR :
  • 171500Z 11006KT 9999 FEW018 25/20 Q1014 NOSIG

EXPIRED METARs :
  • 171430Z 12005KT 9999 FEW018 25/20 Q1014 NOSIG
  • 171400Z 12005KT 9999 FEW018 25/20 Q1015 NOSIG
  • 171330Z 12006KT 9999 FEW018 25/20 Q1015 NOSIG
  • 171300Z 11006KT 9999 FEW018 25/20 Q1015 NOSIG
  • 171230Z 11006KT 9999 FEW018 25/20 Q1016 NOSIG

TAF TAF LFMN
Valid from the 17 at 15:00 until the 18 at 21:00 UTC


171400Z 1715/1821 12010KT 9999 FEW020
BECMG 1717/1718 VRB04KT
BECMG 1720/1722 SCT014
TEMPO 1722/1810 OVC014
BECMG 1809/1810 12010KT
BECMG 1817/1819 VRB04KT BKN014
ATIS : +33 4 93 17 21 16
No reported NOTAMs for that airfield.



MET'MAP, your aeronautical weather chart ! - Copyright ORBIFLY December 2007 - Disclaimer

ORBIFLY MET'MAP TEAM :

Programming & Development : Alexandra Zaïnal
Concept & Development : Baudouin d'Aumeries
Co-Development & Prog : Marc-Olivier Méhu
Technical & hardware support : Manuel Goepfert

Contact : metmap@orbifly.com




SOURCES & CREDITS :

   NOAA